Aktuální počasí v Česku a ve světě - METAR

Seznam meteostanic umístěných nejčasteji na letišti v ČR a ve světě

Vyhledat místa podle abecedy:
A B C D E F G H I J K L M N O P Q R S T U V W X Y Z

Filtrovat:

ID stanice:
a/nebo
Název místa (fulltext):
 
Místo (ID)Naposledy načteno 
Milešovka (Milesovka) 19.01.2021 14:00 UTC Zobrazit data
Místo: Milešovka
Teplota: -1 °C (pocitová: -14.5 °C)
Vítr: 14 m/s z(e) 230°
Počasí: sněží
Dohlednost: 6 km
Zákl. oblačnosti: 8/8 180 m
Vlhkost: 93%
Mošnov (Ostrava/Mo) 19.01.2021 21:00 UTC Zobrazit data
Místo: Mošnov
Teplota: 1 °C (pocitová: -8.9 °C)
Vítr: 7 m/s z(e) 200°
Počasí: sněží
Dohlednost: 2000 m
Zákl. oblačnosti: 8/8 450 m
Vlhkost: 93%
Macau (VMMC) 19.01.2021 21:00 UTC Zobrazit METAR
VMMC 192100Z 02004KT 350V050 9999 FEW035 15/13 Q1018 NOSIG
Madeira (LPMA) 19.01.2021 21:00 UTC Zobrazit METAR
LPMA 192100Z 23012KT 200V280 9999 FEW016 18/10 Q1019
Madrid (LETO) 19.01.2021 21:00 UTC Zobrazit METAR
LETO 192100Z 02006KT CAVOK M02/M02 Q1020 NOSIG
Majuro Atoll (PKMA) Zatím nenačteno  
Malabo (FGSL) 19.01.2021 21:00 UTC Zobrazit METAR
FGSL 192100Z 26004KT 8000 FEW010 25/23 Q1011 NOSIG
Malaga (LEMG) 19.01.2021 21:00 UTC Zobrazit METAR
LEMG 192100Z 00000KT 9999 FEW015 08/07 Q1022 NOSIG
Male (VRMM) 19.01.2021 11:00 UTC Zobrazit METAR
VRMM 191100Z 07012KT 9999 SCT018 BKN280 30/25 Q1008 NOSIG
Malmo (ESMS) 19.01.2021 20:50 UTC Zobrazit METAR
ESMS 192050Z 17007KT 2300 BR OVC002 02/02 Q0999 R17/29//95
Malta (LMML) 19.01.2021 20:45 UTC Zobrazit METAR
LMML 192045Z 23002KT CAVOK 07/03 Q1030 NOSIG
Managua (MNMG) 19.01.2021 21:00 UTC Zobrazit METAR
MNMG 192100Z 08008KT 9999 SCT020 SCT070 29/23 Q1010 A2985 NOSIG
Manchester (EGCC) 19.01.2021 15:50 UTC Zobrazit METAR
EGCC 191550Z AUTO 19010KT 160V220 9999 -RA BKN009 OVC012 10/09 Q0994
Manila (RPLL) 19.01.2021 21:00 UTC Zobrazit METAR
RPLL 192100Z VRB02KT 9999 SCT023 OVC100 25/23 Q1009 NOSIG RMK A2980
Manzini (FDMS) 19.01.2021 08:00 UTC Zobrazit METAR
FDMS 190800Z 27006KT 9999 SCT035 25/16 Q1017 NOSIG
Maputo (FQMA) 19.01.2021 20:00 UTC Zobrazit METAR
FQMA 192000Z 07005KT 9999 FEW025 26/21 Q1012 NOSIG
Maribor (LJMB) 19.01.2021 21:00 UTC Zobrazit METAR
LJMB 192100Z VRB02KT CAVOK 00/M04 Q1015
Marrakech (GMMX) 19.01.2021 21:00 UTC Zobrazit METAR
GMMX 192100Z 24004KT CAVOK 10/04 Q1023 NOSIG
Maseru (FXMM) 19.01.2021 11:00 UTC Zobrazit METAR
FXMM 191100Z 35015KT 9999 BKN030 25/14 Q1020 NOSIG
Mauritius (FIMP) 19.01.2021 21:00 UTC Zobrazit METAR
FIMP 192100Z 34003KT 9999 SCT018 26/25 Q1012
Melilla (GEML) 19.01.2021 21:00 UTC Zobrazit METAR
GEML 192100Z AUTO 25005KT CAVOK 10/07 Q1023
Mexico City (MMMX) 19.01.2021 20:45 UTC Zobrazit METAR
MMMX 192045Z 15008KT 7SM FEW020 BKN220 23/02 A3027 NOSIG RMK SLP088 57027 909 8/102 HZY MDT CU NE NW CC
Midway Atoll, Sand Island (PMDY) 19.01.2021 20:56 UTC Zobrazit METAR
PMDY 192056Z AUTO 21013KT 6SM HZ FEW028 BKN049 BKN060 23/18 A3016 RMK AO2 SLP211 T02330178 55000
Milan (LIMC) 19.01.2021 20:50 UTC Zobrazit METAR
LIMC 192050Z 35004KT 9999 BKN047 M00/M01 Q1022 NOSIG
Minsk (UMMM) 11.07.2016 14:00 UTC Zobrazit METAR
UMMM 111400Z ///// //// BKN040 BKN200 28/16 Q1009 NOSIG RMK QFE738
Mitilini (LGMT) 19.01.2021 20:50 UTC Zobrazit METAR
LGMT 192050Z 02007KT 9999 FEW025 04/M02 Q1026
Mogadishu (HCMM) 08.01.2021 14:00 UTC Zobrazit METAR
HCMM 081400Z 06018KT CAVOK 27/17 Q1005
Monrovia (GLRB) 19.01.2021 21:00 UTC Zobrazit METAR
GLRB 192100Z 00000KT 8000 NSC 26/25 Q1011 NOSIG VCBR
Montevideo (SUMU) 19.01.2021 21:00 UTC Zobrazit METAR
SUMU 192100Z 17008KT 9999 FEW033 29/12 Q1017 NOSIG
Montpellier/ Mediterranee (LFMT) 19.01.2021 21:00 UTC Zobrazit METAR
LFMT 192100Z AUTO 01009KT 9999 BKN024 OVC034 07/01 Q1020 TEMPO BKN012
Moscow (UUEE) Zatím nenačteno  
Mostar (LQMO) 19.01.2021 21:00 UTC Zobrazit METAR
LQMO 192100Z VRB02KT 9999 FEW035 BKN055 01/M03 Q1025
Mount Pleasant (EGYP) 19.01.2021 20:50 UTC Zobrazit METAR
EGYP 192050Z 25018KT CAVOK 18/05 Q1012
Munich (EDDM) 19.01.2021 20:50 UTC Zobrazit METAR
EDDM 192050Z 25010KT 9999 -RA FEW025 BKN040 03/00 Q1014 NOSIG
Muscat (OOMS) 19.01.2021 20:50 UTC Zobrazit METAR
OOMS 192050Z VRB02KT CAVOK 19/07 Q1014 NOSIG
Reklama

Počasí na Váš email

Emaily jsou bez reklamy a bez spamu



Odhlásit newsletter


Další české internetové stránky (nejen) o počasí najdete v katalogu TOPlist - weby o počasí nebo vyhledejte na internetu, co jste tu na 🌞 Slunečnu ⛅ zatím nenašli:
⭐ Přidat Slunečno.cz do oblíbených | 🏠 Nastavit Slunečno.cz jako HOMEPAGE

⬆️ Posunout stránku nahoru ⬆️
Reklama